Map

Track Data

SID SEASON NUMBER BASIN SUBBASIN NAME ISO_TIME NATURE LAT LON WMO_WIND WMO_PRES WMO_AGENCY TRACK_TYPE DIST2LAND LANDFALL IFLAG USA_AGENCY USA_ATCF_ID USA_LAT USA_LON USA_RECORD USA_STATUS USA_WIND USA_PRES USA_SSHS USA_R34_NE USA_R34_SE USA_R34_SW USA_R34_NW USA_R50_NE USA_R50_SE USA_R50_SW USA_R50_NW USA_R64_NE USA_R64_SE USA_R64_SW USA_R64_NW USA_POCI USA_ROCI USA_RMW USA_EYE TOKYO_LAT TOKYO_LON TOKYO_GRADE TOKYO_WIND TOKYO_PRES TOKYO_R50_DIR TOKYO_R50_LONG TOKYO_R50_SHORT TOKYO_R30_DIR TOKYO_R30_LONG TOKYO_R30_SHORT TOKYO_LAND CMA_LAT CMA_LON CMA_CAT CMA_WIND CMA_PRES HKO_LAT HKO_LON HKO_CAT HKO_WIND HKO_PRES NEWDELHI_LAT NEWDELHI_LON NEWDELHI_GRADE NEWDELHI_WIND NEWDELHI_PRES NEWDELHI_CI NEWDELHI_DP NEWDELHI_POCI REUNION_LAT REUNION_LON REUNION_TYPE REUNION_WIND REUNION_PRES REUNION_TNUM REUNION_CI REUNION_RMW REUNION_R34_NE REUNION_R34_SE REUNION_R34_SW REUNION_R34_NW REUNION_R50_NE REUNION_R50_SE REUNION_R50_SW REUNION_R50_NW REUNION_R64_NE REUNION_R64_SE REUNION_R64_SW REUNION_R64_NW BOM_LAT BOM_LON BOM_TYPE BOM_WIND BOM_PRES BOM_TNUM BOM_CI BOM_RMW BOM_R34_NE BOM_R34_SE BOM_R34_SW BOM_R34_NW BOM_R50_NE BOM_R50_SE BOM_R50_SW BOM_R50_NW BOM_R64_NE BOM_R64_SE BOM_R64_SW BOM_R64_NW BOM_ROCI BOM_POCI BOM_EYE BOM_POS_METHOD BOM_PRES_METHOD NADI_LAT NADI_LON NADI_CAT NADI_WIND NADI_PRES WELLINGTON_LAT WELLINGTON_LON WELLINGTON_WIND WELLINGTON_PRES DS824_LAT DS824_LON DS824_STAGE DS824_WIND DS824_PRES TD9636_LAT TD9636_LON TD9636_STAGE TD9636_WIND TD9636_PRES TD9635_LAT TD9635_LON TD9635_WIND TD9635_PRES TD9635_ROCI NEUMANN_LAT NEUMANN_LON NEUMANN_CLASS NEUMANN_WIND NEUMANN_PRES MLC_LAT MLC_LON MLC_CLASS MLC_WIND MLC_PRES USA_GUST BOM_GUST BOM_GUST_PER REUNION_GUST REUNION_GUST_PER USA_SEAHGT USA_SEARAD_NE USA_SEARAD_SE USA_SEARAD_SW USA_SEARAD_NW STORM_SPEED STORM_DIR
1887280N20275 1887 62 NA CS NOT_NAMED 1887-10-06 12:00:00 TS 19.7000 -84.7000 35 hurdat_atl main 235 207 O_____________ hurdat_atl AL111887 19.7000 -84.7000 TS 35 0 12 270
1887280N20275 1887 62 NA CS NOT_NAMED 1887-10-06 15:00:00 TS 19.7005 -85.3500 main 199 148 P_____________ AL111887 19.7005 -85.3500 TS 40 0 12 270
1887280N20275 1887 62 NA CS NOT_NAMED 1887-10-06 18:00:00 TS 19.7000 -86.0000 45 hurdat_atl main 148 86 O_____________ hurdat_atl AL111887 19.7000 -86.0000 TS 45 0 12 270
1887280N20275 1887 62 NA CS NOT_NAMED 1887-10-06 21:00:00 TS 19.6998 -86.6500 main 86 23 P_____________ AL111887 19.6998 -86.6500 TS 47 0 12 270
1887280N20275 1887 62 NA CS NOT_NAMED 1887-10-07 00:00:00 TS 19.7000 -87.3000 50 hurdat_atl main 23 0 O_____________ hurdat_atl AL111887 19.7000 -87.3000 TS 50 0 12 270
1887280N20275 1887 62 NA NA NOT_NAMED 1887-10-07 03:00:00 TS 19.6923 -87.9501 main 0 0 P_____________ AL111887 19.6923 -87.9501 TS 47 0 12 270
1887280N20275 1887 62 NA NA NOT_NAMED 1887-10-07 06:00:00 TS 19.7000 -88.6000 45 hurdat_atl main 0 0 O_____________ hurdat_atl AL111887 19.7000 -88.6000 TS 45 0 12 273
1887280N20275 1887 62 NA NA NOT_NAMED 1887-10-07 09:00:00 TS 19.7498 -89.2499 main 0 0 P_____________ AL111887 19.7498 -89.2499 TS 42 0 12 275
1887280N20275 1887 62 NA NA NOT_NAMED 1887-10-07 12:00:00 TS 19.8000 -89.9000 40 hurdat_atl main 0 0 O_____________ hurdat_atl AL111887 19.8000 -89.9000 TS 40 0 12 273
1887280N20275 1887 62 NA NA NOT_NAMED 1887-10-07 15:00:00 TS 19.8073 -90.5501 main 0 0 P_____________ AL111887 19.8073 -90.5501 TS 40 0 12 270
1887280N20275 1887 62 NA GM NOT_NAMED 1887-10-07 18:00:00 TS 19.8000 -91.2000 40 hurdat_atl main 53 53 O_____________ hurdat_atl AL111887 19.8000 -91.2000 TS 40 0 12 269
1887280N20275 1887 62 NA GM NOT_NAMED 1887-10-07 21:00:00 TS 19.7923 -91.8576 main 109 109 P_____________ AL111887 19.7923 -91.8576 TS 42 0 12 270
1887280N20275 1887 62 NA GM NOT_NAMED 1887-10-08 00:00:00 TS 19.8000 -92.5000 45 hurdat_atl main 134 134 O_____________ hurdat_atl AL111887 19.8000 -92.5000 TS 45 0 12 272
1887280N20275 1887 62 NA GM NOT_NAMED 1887-10-08 03:00:00 TS 19.8421 -93.1000 main 140 140 P_____________ AL111887 19.8421 -93.1000 TS 47 0 11 275
1887280N20275 1887 62 NA GM NOT_NAMED 1887-10-08 06:00:00 TS 19.9000 -93.7000 50 hurdat_atl main 178 162 O_____________ hurdat_atl AL111887 19.9000 -93.7000 TS 50 0 12 275
1887280N20275 1887 62 NA GM NOT_NAMED 1887-10-08 09:00:00 TS 19.9498 -94.3425 main 162 145 P_____________ AL111887 19.9498 -94.3425 TS 50 0 12 275
1887280N20275 1887 62 NA GM NOT_NAMED 1887-10-08 12:00:00 TS 20.0000 -95.0000 50 hurdat_atl main 145 84 O_____________ hurdat_atl AL111887 20.0000 -95.0000 TS 50 0 12 275
1887280N20275 1887 62 NA GM NOT_NAMED 1887-10-08 15:00:00 TS 20.0498 -95.6500 main 74 23 P_____________ AL111887 20.0498 -95.6500 TS 50 0 12 275
1887280N20275 1887 62 NA GM NOT_NAMED 1887-10-08 18:00:00 TS 20.1000 -96.3000 50 hurdat_atl main 23 0 O_____________ hurdat_atl AL111887 20.1000 -96.3000 TS 50 0 12 275
1887280N20275 1887 62 NA NA NOT_NAMED 1887-10-08 21:00:00 TS 20.1505 -96.9499 main 0 0 P_____________ AL111887 20.1505 -96.9499 TS 40 0 12 275
1887280N20275 1887 62 NA NA NOT_NAMED 1887-10-09 00:00:00 TS 20.2000 -97.6000 30 hurdat_atl main 0 O_____________ hurdat_atl AL111887 20.2000 -97.6000 TD 30 -1 12 275

About IBTrACS Database

This database is a web-friendly format of International Best Track Archive for Climate Stewardship (IBTrACS), a global best track data archive curated by NOAA dating back to 1842.

Updated: 2021-12-08